Terminal Aerodrome Forecast
Issued by NWS Topeka, KS

Home | Current Version | Previous Version | Text Only | Print | Product List | Glossary Off
Versions: 1 2 3 4 5 6 7 8 9 10 11 12 13 14 15 16 17 18 19 20 21 22 23 24 25

000
FTUS43 KTOP 290625 AAB
TAFTOP
TAF AMD
KTOP 290625Z 2906/3006 30003KT P6SM SCT018 BKN100
      TEMPO 2906/2910 BKN018
     FM291000 33004KT 5SM BR BKN018
     FM291500 35008KT P6SM BKN025
     FM292000 02005KT P6SM FEW025=

USA.gov is the U.S. government's official web portal to all federal, state and local government web resources and services.